Time;durP1;ratioP1;P1;durP2;ratioP2;P2;SDS_P1;SDS_P2;PMS_P1;PMS_P2;Temp;Humidity;BMP_temperature;BMP_pressure;BME280_temperature;BME280_humidity;BME280_pressure;Samples;Min_cycle;Max_cycle;Signal;HPM_P1;HPM_P2
2023/07/21 00:04:18;;;;;;;;;;;17.50;99.90;;;;;;20938697;28;20379;-75
2023/07/21 00:14:19;;;;;;;;;;;17.30;99.90;;;;;;21009362;22;20341;-76
2023/07/21 00:24:20;;;;;;;;;;;17.40;99.90;;;;;;20946352;28;19921;-76
2023/07/21 00:34:24;;;;;;;;;;;17.30;99.90;;;;;;20911586;28;19952;-77
2023/07/21 00:44:25;;;;;;;;;;;17.10;99.90;;;;;;20923537;28;19927;-76
2023/07/21 00:54:25;;;;;;;;;;;16.80;99.90;;;;;;20938796;28;19913;-77
2023/07/21 01:04:26;;;;;;;;;;;16.90;99.90;;;;;;20902937;28;19971;-77
2023/07/21 01:14:29;;;;;;;;;;;16.90;99.90;;;;;;20904305;28;19917;-77
2023/07/21 01:24:48;;;;;;;;;;;16.80;99.90;;;;;;20956602;28;19923;-77
2023/07/21 01:34:49;;;;;;;;;;;16.80;99.90;;;;;;20972843;28;19913;-76
2023/07/21 01:44:50;;;;;;;;;;;16.40;99.90;;;;;;20989974;28;19916;-77
2023/07/21 01:54:52;;;;;;;;;;;16.30;99.90;;;;;;20990794;28;19919;-76
2023/07/21 02:04:53;;;;;;;;;;;16.10;99.90;;;;;;20971357;28;19970;-77
2023/07/21 02:14:54;;;;;;;;;;;15.90;99.90;;;;;;20943387;28;20445;-76
2023/07/21 02:24:54;;;;;;;;;;;15.60;99.90;;;;;;20897866;28;19921;-77
2023/07/21 02:34:57;;;;;;;;;;;15.60;99.90;;;;;;20904280;28;20003;-76
2023/07/21 02:44:58;;;;;;;;;;;15.40;99.90;;;;;;20937929;28;19917;-76
2023/07/21 02:54:59;;;;;;;;;;;15.30;99.90;;;;;;20984563;28;20283;-76
2023/07/21 03:05:03;;;;;;;;;;;15.00;99.90;;;;;;20983605;28;20340;-76
2023/07/21 03:15:05;;;;;;;;;;;14.80;99.90;;;;;;20983168;28;20307;-76
2023/07/21 03:25:19;;;;;;;;;;;14.60;99.90;;;;;;20982036;28;19969;-77
2023/07/21 03:35:20;;;;;;;;;;;14.50;99.90;;;;;;20980109;28;19995;-76
2023/07/21 03:45:26;;;;;;;;;;;14.40;99.90;;;;;;20980427;28;20298;-76
2023/07/21 03:55:27;;;;;;;;;;;14.30;99.90;;;;;;20978614;28;19923;-75
2023/07/21 04:05:27;;;;;;;;;;;14.00;99.90;;;;;;20937045;28;19917;-75
2023/07/21 04:15:28;;;;;;;;;;;14.10;99.90;;;;;;20932102;28;19959;-76
2023/07/21 04:25:29;;;;;;;;;;;14.10;99.90;;;;;;20977553;28;20298;-76
2023/07/21 04:35:29;;;;;;;;;;;14.00;99.90;;;;;;20977047;28;19912;-76
2023/07/21 04:45:32;;;;;;;;;;;14.10;99.90;;;;;;20975317;28;19923;-76
2023/07/21 04:55:40;;;;;;;;;;;14.30;99.90;;;;;;20975224;28;19912;-76
2023/07/21 05:05:44;;;;;;;;;;;14.90;99.90;;;;;;20974312;28;19916;-76
2023/07/21 05:15:46;;;;;;;;;;;15.60;99.90;;;;;;20973875;28;19916;-77
2023/07/21 05:26:05;;;;;;;;;;;16.00;99.90;;;;;;20973087;28;19916;-76
2023/07/21 05:36:09;;;;;;;;;;;16.10;99.90;;;;;;20973886;28;19966;-77
2023/07/21 05:46:12;;;;;;;;;;;16.10;99.90;;;;;;20930516;28;20375;-78
2023/07/21 05:56:21;;;;;;;;;;;16.30;99.90;;;;;;20894519;28;19913;-78
2023/07/21 06:06:32;;;;;;;;;;;16.70;99.90;;;;;;20920093;22;19925;-75
2023/07/21 06:16:51;;;;;;;;;;;17.00;99.90;;;;;;20904475;28;19913;-75
2023/07/21 06:26:53;;;;;;;;;;;17.00;99.90;;;;;;20922414;28;19923;-75
2023/07/21 06:36:54;;;;;;;;;;;17.50;99.90;;;;;;20894085;28;19972;-75
2023/07/21 06:47:14;;;;;;;;;;;18.70;99.90;;;;;;20884547;28;19917;-75
2023/07/21 06:57:44;;;;;;;;;;;19.80;99.90;;;;;;20783494;28;19967;-75
2023/07/21 07:07:52;;;;;;;;;;;20.20;99.90;;;;;;20817456;28;21721;-76
2023/07/21 07:17:55;;;;;;;;;;;20.50;99.90;;;;;;20817985;28;20441;-76
2023/07/21 07:27:56;;;;;;;;;;;21.30;99.90;;;;;;20817193;28;19968;-75
2023/07/21 07:37:56;;;;;;;;;;;21.60;99.90;;;;;;20885666;28;19966;-75
2023/07/21 07:47:57;;;;;;;;;;;22.80;99.90;;;;;;20873926;28;19960;-75
2023/07/21 07:57:59;;;;;;;;;;;23.30;99.90;;;;;;20832844;28;19971;-75
2023/07/21 08:08:01;;;;;;;;;;;23.00;99.90;;;;;;20831291;28;19917;-73
2023/07/21 08:18:03;;;;;;;;;;;23.50;99.90;;;;;;20831206;28;20249;-73
2023/07/21 08:28:04;;;;;;;;;;;24.40;99.90;;;;;;20812778;28;19917;-73
2023/07/21 08:38:05;;;;;;;;;;;24.90;99.90;;;;;;20829399;28;19913;-73
2023/07/21 08:48:07;;;;;;;;;;;25.90;99.90;;;;;;20828492;28;19924;-74
2023/07/21 08:58:08;;;;;;;;;;;26.10;99.90;;;;;;20827700;28;19917;-73
2023/07/21 09:08:17;;;;;;;;;;;24.60;99.90;;;;;;20827138;28;19917;-73
2023/07/21 09:18:18;;;;;;;;;;;24.40;99.90;;;;;;20808771;28;19917;-72
2023/07/21 09:28:19;;;;;;;;;;;23.40;99.90;;;;;;20825615;28;20287;-72
2023/07/21 09:38:21;;;;;;;;;;;23.90;99.90;;;;;;20824237;28;19917;-72
2023/07/21 09:48:22;;;;;;;;;;;25.40;99.90;;;;;;20806939;28;20370;-72
2023/07/21 09:58:25;;;;;;;;;;;23.40;99.90;;;;;;20824462;28;20395;-72
2023/07/21 10:08:27;;;;;;;;;;;24.00;99.90;;;;;;20823398;28;19963;-73
2023/07/21 10:18:28;;;;;;;;;;;22.90;99.90;;;;;;20823486;28;19925;-73
2023/07/21 10:28:39;;;;;;;;;;;22.40;99.90;;;;;;20823339;28;20071;-73
2023/07/21 10:38:40;;;;;;;;;;;24.00;99.90;;;;;;20822719;28;20394;-74
2023/07/21 10:48:42;;;;;;;;;;;25.30;99.90;;;;;;20784994;28;19917;-73
2023/07/21 10:58:43;;;;;;;;;;;25.70;99.90;;;;;;20795958;28;19996;-74
2023/07/21 11:08:44;;;;;;;;;;;26.10;99.90;;;;;;20776710;28;20202;-73
2023/07/21 11:18:44;;;;;;;;;;;27.10;99.90;;;;;;20792699;28;20387;-73
2023/07/21 11:28:45;;;;;;;;;;;27.10;99.90;;;;;;20814105;28;19944;-73
2023/07/21 11:39:07;;;;;;;;;;;25.90;99.90;;;;;;20834213;28;19920;-73
2023/07/21 11:49:11;;;;;;;;;;;25.60;99.90;;;;;;20833207;28;19996;-73
2023/07/21 11:59:11;;;;;;;;;;;25.60;99.90;;;;;;20831625;28;19956;-75
2023/07/21 12:09:12;;;;;;;;;;;26.10;99.90;;;;;;20832406;28;20403;-73
2023/07/21 12:19:13;;;;;;;;;;;26.60;99.90;;;;;;20831515;28;19921;-74
2023/07/21 12:29:15;;;;;;;;;;;25.70;99.30;;;;;;20829463;28;19921;-76
2023/07/21 12:39:17;;;;;;;;;;;23.70;99.90;;;;;;20826990;28;20315;-76
2023/07/21 12:49:18;;;;;;;;;;;23.80;99.90;;;;;;20817869;28;19940;-76
2023/07/21 12:59:18;;;;;;;;;;;23.40;99.90;;;;;;20839399;28;19913;-76
2023/07/21 13:09:20;;;;;;;;;;;23.30;99.90;;;;;;20805210;28;19940;-73
2023/07/21 13:19:21;;;;;;;;;;;23.30;99.90;;;;;;20891622;28;19912;-75
2023/07/21 13:29:21;;;;;;;;;;;23.10;99.90;;;;;;20903888;28;19917;-75
2023/07/21 13:39:22;;;;;;;;;;;23.40;99.90;;;;;;20905509;28;19913;-75
2023/07/21 13:49:23;;;;;;;;;;;24.10;99.90;;;;;;20827349;28;19921;-76
2023/07/21 13:59:24;;;;;;;;;;;25.40;99.90;;;;;;20824995;28;19913;-74
2023/07/21 14:09:25;;;;;;;;;;;24.30;99.90;;;;;;20824245;28;19998;-75
2023/07/21 14:19:26;;;;;;;;;;;25.00;99.90;;;;;;20811870;28;19920;-75
2023/07/21 14:29:26;;;;;;;;;;;25.20;99.90;;;;;;20839604;28;20403;-75
2023/07/21 14:39:27;;;;;;;;;;;24.90;99.90;;;;;;20838835;28;19913;-75
2023/07/21 14:49:28;;;;;;;;;;;24.80;99.90;;;;;;20866267;28;19932;-74
2023/07/21 14:59:28;;;;;;;;;;;24.90;99.90;;;;;;20818916;28;20006;-74
2023/07/21 15:09:29;;;;;;;;;;;24.70;99.90;;;;;;20828058;28;20008;-75
2023/07/21 15:19:30;;;;;;;;;;;24.70;99.90;;;;;;20832600;28;20012;-74
2023/07/21 15:29:30;;;;;;;;;;;23.60;99.90;;;;;;20834691;28;19968;-75
2023/07/21 15:39:31;;;;;;;;;;;24.20;99.90;;;;;;20834171;28;19921;-74
2023/07/21 15:49:32;;;;;;;;;;;23.70;99.90;;;;;;20865017;28;19928;-75
2023/07/21 15:59:32;;;;;;;;;;;23.60;99.90;;;;;;20913617;28;19920;-75
2023/07/21 16:09:33;;;;;;;;;;;23.70;99.90;;;;;;20912604;28;19921;-75
2023/07/21 16:19:33;;;;;;;;;;;23.40;99.90;;;;;;20748552;28;19914;-74
2023/07/21 16:29:34;;;;;;;;;;;23.10;99.90;;;;;;20748038;28;19925;-76
2023/07/21 16:39:35;;;;;;;;;;;23.20;99.90;;;;;;20747978;28;19914;-75
2023/07/21 16:49:35;;;;;;;;;;;23.00;99.90;;;;;;20754952;28;19940;-75
2023/07/21 16:59:36;;;;;;;;;;;22.50;99.90;;;;;;20811559;28;19920;-75
2023/07/21 17:09:37;;;;;;;;;;;23.00;99.90;;;;;;20827152;28;19917;-76
2023/07/21 17:19:37;;;;;;;;;;;23.00;99.90;;;;;;20826822;28;19913;-77
2023/07/21 17:29:39;;;;;;;;;;;23.00;99.90;;;;;;20825212;28;19917;-76
2023/07/21 17:39:40;;;;;;;;;;;22.50;99.90;;;;;;20825499;28;19920;-76
2023/07/21 17:49:40;;;;;;;;;;;22.50;99.90;;;;;;20825305;28;19917;-75
2023/07/21 17:59:41;;;;;;;;;;;22.00;99.90;;;;;;20823929;28;20364;-74
2023/07/21 18:09:42;;;;;;;;;;;22.10;99.90;;;;;;20823928;28;19917;-75
2023/07/21 18:19:42;;;;;;;;;;;22.00;99.90;;;;;;20823685;28;19913;-76
2023/07/21 18:29:43;;;;;;;;;;;21.90;99.90;;;;;;20823249;28;19931;-76
2023/07/21 18:39:44;;;;;;;;;;;21.50;99.90;;;;;;20823226;28;19913;-77
2023/07/21 18:49:44;;;;;;;;;;;21.50;99.90;;;;;;20822517;28;20304;-75
2023/07/21 18:59:45;;;;;;;;;;;21.30;99.90;;;;;;20823459;28;20011;-76
2023/07/21 19:09:46;;;;;;;;;;;20.90;99.90;;;;;;20815105;28;19917;-76
2023/07/21 19:19:46;;;;;;;;;;;20.40;99.90;;;;;;20836101;28;19917;-76
2023/07/21 19:29:47;;;;;;;;;;;19.50;99.90;;;;;;20817624;28;19917;-76
2023/07/21 19:39:48;;;;;;;;;;;19.10;99.90;;;;;;20834933;28;20486;-76
2023/07/21 19:49:48;;;;;;;;;;;18.90;99.90;;;;;;20816964;28;20059;-74
2023/07/21 19:59:49;;;;;;;;;;;19.00;99.90;;;;;;20833085;28;19967;-74
2023/07/21 20:09:50;;;;;;;;;;;18.70;99.90;;;;;;20832197;28;19917;-73
2023/07/21 20:19:50;;;;;;;;;;;18.90;99.90;;;;;;20830865;28;20007;-74
2023/07/21 20:29:51;;;;;;;;;;;19.10;99.90;;;;;;20812517;28;20000;-72
2023/07/21 20:39:52;;;;;;;;;;;19.00;99.90;;;;;;20830039;28;19913;-73
2023/07/21 20:49:52;;;;;;;;;;;18.70;99.90;;;;;;20811304;28;19921;-73
2023/07/21 20:59:53;;;;;;;;;;;18.60;99.90;;;;;;20871509;28;20295;-73
2023/07/21 21:09:54;;;;;;;;;;;18.30;99.90;;;;;;20837888;28;19948;-73
2023/07/21 21:19:54;;;;;;;;;;;17.90;99.90;;;;;;20829978;28;19912;-73
2023/07/21 21:29:55;;;;;;;;;;;17.80;99.90;;;;;;20841777;28;19917;-72
2023/07/21 21:39:56;;;;;;;;;;;17.40;99.90;;;;;;20834883;28;19975;-72
2023/07/21 21:49:56;;;;;;;;;;;17.20;99.90;;;;;;20863506;28;20388;-71
2023/07/21 21:59:57;;;;;;;;;;;17.10;99.90;;;;;;20864606;28;20334;-73
2023/07/21 22:09:58;;;;;;;;;;;17.20;99.90;;;;;;20865335;28;19964;-73
2023/07/21 22:19:58;;;;;;;;;;;17.10;99.90;;;;;;20834416;28;19917;-73
2023/07/21 22:29:59;;;;;;;;;;;17.00;99.90;;;;;;20823560;28;19925;-74
2023/07/21 22:40:00;;;;;;;;;;;16.20;99.90;;;;;;20820805;28;20398;-73
2023/07/21 22:50:00;;;;;;;;;;;16.40;99.90;;;;;;20834158;28;20012;-75
2023/07/21 23:00:03;;;;;;;;;;;16.10;99.90;;;;;;20877321;28;20423;-75
2023/07/21 23:10:05;;;;;;;;;;;16.10;99.90;;;;;;20864048;28;20423;-75
2023/07/21 23:20:07;;;;;;;;;;;16.10;99.90;;;;;;20753953;28;20359;-75
2023/07/21 23:30:08;;;;;;;;;;;16.10;99.90;;;;;;20803581;28;19968;-76
2023/07/21 23:40:09;;;;;;;;;;;16.20;99.90;;;;;;20873328;28;19924;-75
2023/07/21 23:50:10;;;;;;;;;;;16.40;99.90;;;;;;20871997;28;19916;-75
